createdAt,value
2018-09-29T00:01:37.167Z,44.94
2018-09-29T00:04:05.220Z,44.40
2018-09-29T00:06:33.251Z,44.11
2018-09-29T00:09:01.261Z,44.70
2018-09-29T00:11:29.357Z,45.30
2018-09-29T00:13:57.567Z,44.88
2018-09-29T00:16:25.610Z,45.16
2018-09-29T00:18:53.616Z,44.76
2018-09-29T00:21:21.951Z,44.08
2018-09-29T00:23:50.646Z,44.69
2018-09-29T00:26:19.111Z,43.88
2018-09-29T00:28:47.607Z,44.78
2018-09-29T00:31:15.580Z,44.57
2018-09-29T00:33:43.558Z,44.70
2018-09-29T00:36:11.560Z,44.04
2018-09-29T00:38:39.482Z,43.15
2018-09-29T00:41:07.653Z,43.04
2018-09-29T00:43:35.709Z,43.86
2018-09-29T00:46:03.702Z,43.40
2018-09-29T00:48:31.685Z,43.06
2018-09-29T00:50:59.689Z,43.44
2018-09-29T00:53:27.814Z,43.98
2018-09-29T00:55:55.827Z,42.92
2018-09-29T00:58:23.875Z,42.70
2018-09-29T01:00:52.136Z,43.58
2018-09-29T01:03:20.141Z,42.38
2018-09-29T01:05:48.131Z,43.55
2018-09-29T01:08:16.305Z,43.30
2018-09-29T01:10:44.358Z,44.10
2018-09-29T01:13:12.452Z,44.60
2018-09-29T01:15:40.439Z,44.03
2018-09-29T01:18:08.645Z,44.40
2018-09-29T01:20:36.930Z,42.98
2018-09-29T01:23:04.988Z,44.76
2018-09-29T01:25:33.037Z,46.57
2018-09-29T01:28:01.107Z,46.51
2018-09-29T01:30:29.175Z,46.13
2018-09-29T01:32:57.312Z,45.48
2018-09-29T01:35:26.530Z,46.76
2018-09-29T01:37:54.550Z,47.30
2018-09-29T01:40:22.617Z,46.88
2018-09-29T01:42:50.621Z,47.76
2018-09-29T01:45:18.625Z,49.07
2018-09-29T01:47:46.678Z,47.79
2018-09-29T01:50:14.701Z,47.93
2018-09-29T01:52:42.724Z,47.73
2018-09-29T01:55:10.725Z,47.77
2018-09-29T01:57:38.774Z,48.71
2018-09-29T02:00:07.922Z,48.09
2018-09-29T02:02:36.140Z,47.48
2018-09-29T02:05:04.389Z,47.55
2018-09-29T02:07:33.606Z,48.16
2018-09-29T02:10:04.101Z,48.16
2018-09-29T02:12:32.207Z,48.07
2018-09-29T02:15:00.285Z,46.89
2018-09-29T02:17:28.340Z,47.65
2018-09-29T02:19:56.689Z,47.50
2018-09-29T02:22:24.828Z,47.73
2018-09-29T02:24:52.902Z,47.06
2018-09-29T02:27:20.910Z,46.85
2018-09-29T02:29:49.001Z,47.75
2018-09-29T02:32:17.092Z,47.46
2018-09-29T02:34:45.145Z,47.34
2018-09-29T02:37:13.209Z,47.87
2018-09-29T02:39:41.489Z,46.95
2018-09-29T02:42:10.264Z,47.35
2018-09-29T02:44:38.757Z,48.49
2018-09-29T02:47:06.806Z,48.24
2018-09-29T02:49:34.827Z,49.13
2018-09-29T02:52:02.835Z,49.01
2018-09-29T02:54:30.872Z,48.63
2018-09-29T02:56:58.846Z,47.85
2018-09-29T02:59:26.873Z,49.58
2018-09-29T03:01:54.884Z,48.76
2018-09-29T03:04:22.947Z,47.92
2018-09-29T03:06:51.044Z,48.70
2018-09-29T03:09:19.175Z,49.67
2018-09-29T03:11:47.329Z,49.74
2018-09-29T03:14:15.304Z,49.69
2018-09-29T03:16:43.426Z,50.49
2018-09-29T03:19:11.488Z,49.47
2018-09-29T03:21:39.548Z,42.89
2018-09-29T03:24:08.389Z,48.00
2018-09-29T03:26:36.471Z,49.47
2018-09-29T03:29:04.533Z,48.23
2018-09-29T03:31:32.662Z,46.32
2018-09-29T03:34:00.874Z,44.64
2018-09-29T03:36:28.964Z,45.62
2018-09-29T03:38:57.019Z,45.79
2018-09-29T03:41:25.161Z,45.72
2018-09-29T03:43:53.701Z,44.81
2018-09-29T03:46:21.872Z,46.27
2018-09-29T03:48:50.227Z,45.92
2018-09-29T03:51:18.447Z,46.26
2018-09-29T03:53:46.522Z,45.38
2018-09-29T03:56:14.686Z,44.77
2018-09-29T03:58:42.804Z,46.18
2018-09-29T04:01:10.900Z,45.45
2018-09-29T04:03:39.040Z,46.19
2018-09-29T04:06:07.106Z,45.89
2018-09-29T04:08:35.222Z,47.20
2018-09-29T04:11:03.371Z,46.46
2018-09-29T04:13:31.413Z,46.27
2018-09-29T04:15:59.427Z,48.12
2018-09-29T04:18:27.463Z,47.54
2018-09-29T04:20:55.466Z,49.22
2018-09-29T04:23:23.683Z,49.52
2018-09-29T04:25:51.757Z,50.27
2018-09-29T04:28:19.910Z,50.87
2018-09-29T04:30:47.931Z,50.75
2018-09-29T04:33:16.033Z,51.30
2018-09-29T04:35:44.068Z,51.02
2018-09-29T04:38:12.215Z,51.01
2018-09-29T04:40:40.353Z,51.15
2018-09-29T04:43:08.480Z,51.43
2018-09-29T04:45:36.452Z,52.54
2018-09-29T04:48:04.501Z,51.35
2018-09-29T04:50:32.590Z,50.88
2018-09-29T04:53:00.799Z,50.43
2018-09-29T04:55:28.982Z,50.57
2018-09-29T04:57:57.102Z,50.47
2018-09-29T05:00:26.743Z,48.92
2018-09-29T05:02:55.051Z,49.99
2018-09-29T05:05:23.194Z,50.30
2018-09-29T05:07:51.268Z,50.82
2018-09-29T05:10:19.303Z,48.07
2018-09-29T05:12:47.351Z,51.06
2018-09-29T05:15:15.467Z,50.66
2018-09-29T05:17:43.733Z,48.87
2018-09-29T05:20:12.452Z,50.51
2018-09-29T05:22:40.659Z,50.54
2018-09-29T05:25:08.867Z,50.67
2018-09-29T05:27:36.890Z,51.16
2018-09-29T05:30:06.076Z,48.60
2018-09-29T05:32:34.500Z,46.56
2018-09-29T05:35:03.983Z,45.93
2018-09-29T05:37:33.659Z,45.80
2018-09-29T05:40:02.508Z,44.65
2018-09-29T05:42:30.749Z,44.88
2018-09-29T05:44:58.936Z,43.60
2018-09-29T05:47:27.179Z,43.32
2018-09-29T05:49:55.513Z,42.36
2018-09-29T05:52:23.769Z,43.40
2018-09-29T05:54:52.252Z,43.13
2018-09-29T05:57:20.710Z,43.05
2018-09-29T05:59:48.924Z,43.29
2018-09-29T06:02:17.161Z,44.03
2018-09-29T06:04:45.813Z,44.70
2018-09-29T06:07:14.056Z,43.63
2018-09-29T06:09:42.179Z,44.81
2018-09-29T06:12:10.358Z,44.60
2018-09-29T06:14:38.467Z,44.55
2018-09-29T06:17:07.068Z,44.13
2018-09-29T06:19:35.280Z,43.36
2018-09-29T06:22:03.448Z,43.16
2018-09-29T06:24:31.734Z,41.88
2018-09-29T06:27:00.110Z,41.91
2018-09-29T06:29:28.483Z,43.33
2018-09-29T06:31:56.611Z,42.28
2018-09-29T06:34:24.838Z,41.07
2018-09-29T06:36:53.111Z,39.50
2018-09-29T06:39:21.494Z,38.70
2018-09-29T06:41:49.604Z,36.92
2018-09-29T06:44:17.869Z,37.59
2018-09-29T06:46:46.040Z,37.50
2018-09-29T06:49:14.891Z,37.94
2018-09-29T06:51:43.353Z,38.46
2018-09-29T06:54:11.520Z,37.48
2018-09-29T06:56:39.849Z,37.01
2018-09-29T06:59:08.441Z,36.89
2018-09-29T07:01:36.717Z,38.95
2018-09-29T07:04:05.314Z,37.71
2018-09-29T07:06:35.188Z,36.90
2018-09-29T07:09:05.854Z,36.25
2018-09-29T07:11:34.544Z,36.03
2018-09-29T07:14:02.601Z,35.32
2018-09-29T07:16:30.964Z,34.58
2018-09-29T07:18:59.286Z,32.67
2018-09-29T07:21:27.538Z,33.92
2018-09-29T07:23:56.092Z,34.71
2018-09-29T07:26:24.284Z,33.88
2018-09-29T07:28:52.429Z,34.84
2018-09-29T07:31:20.907Z,34.71
2018-09-29T07:33:48.911Z,34.37
2018-09-29T07:36:17.123Z,34.21
2018-09-29T07:38:45.460Z,33.77
2018-09-29T07:41:13.708Z,33.66
2018-09-29T07:43:42.562Z,32.81
2018-09-29T07:46:11.098Z,31.66
2018-09-29T07:48:39.413Z,31.75
2018-09-29T07:51:07.758Z,31.35
2018-09-29T07:53:38.560Z,30.94
2018-09-29T07:56:06.912Z,30.50
2018-09-29T07:58:35.238Z,30.80
2018-09-29T08:01:03.622Z,30.37
2018-09-29T08:03:31.914Z,31.08
2018-09-29T08:06:00.176Z,30.88
2018-09-29T08:08:28.655Z,30.62
2018-09-29T08:10:57.241Z,28.48
2018-09-29T08:13:25.654Z,29.04
2018-09-29T08:15:55.874Z,29.06
2018-09-29T08:18:24.627Z,27.96
2018-09-29T08:20:53.061Z,29.32
2018-09-29T08:23:21.997Z,28.95
2018-09-29T08:25:50.208Z,29.31
2018-09-29T08:28:18.489Z,27.92
2018-09-29T08:30:47.538Z,29.00
2018-09-29T08:33:16.071Z,28.61
2018-09-29T08:35:44.486Z,28.91
2018-09-29T08:38:12.711Z,29.38
2018-09-29T08:40:40.917Z,29.62
2018-09-29T08:43:10.051Z,28.93
2018-09-29T08:45:38.446Z,28.84
2018-09-29T08:48:06.569Z,29.96
2018-09-29T08:50:35.003Z,29.76
2018-09-29T08:53:03.287Z,29.79
2018-09-29T08:55:32.186Z,30.84
2018-09-29T08:58:00.471Z,31.81
2018-09-29T09:00:29.058Z,30.50
2018-09-29T09:02:57.505Z,31.73
2018-09-29T09:05:26.236Z,31.87
2018-09-29T09:07:54.602Z,31.48
2018-09-29T09:10:22.891Z,31.30
2018-09-29T09:12:51.081Z,30.43
2018-09-29T09:15:19.335Z,29.63
2018-09-29T09:17:47.566Z,30.86
2018-09-29T09:20:15.682Z,28.18
2018-09-29T09:22:45.204Z,29.12
2018-09-29T09:25:15.773Z,30.28
2018-09-29T09:27:43.932Z,28.53
2018-09-29T09:30:12.177Z,29.63
2018-09-29T09:32:40.194Z,28.43
2018-09-29T09:35:08.339Z,30.02
2018-09-29T09:37:36.564Z,30.79
2018-09-29T09:40:05.107Z,31.64
2018-09-29T09:42:33.394Z,31.26
2018-09-29T09:45:01.472Z,31.52
2018-09-29T09:47:29.678Z,31.18
2018-09-29T09:49:57.882Z,32.01
2018-09-29T09:52:26.105Z,31.60
2018-09-29T09:54:54.426Z,30.51
2018-09-29T09:57:22.722Z,30.72
2018-09-29T09:59:50.976Z,30.66
2018-09-29T10:02:24.648Z,30.03
2018-09-29T10:04:53.110Z,29.91
2018-09-29T10:07:21.366Z,29.49
2018-09-29T10:09:49.582Z,28.46
2018-09-29T10:12:17.970Z,28.50
2018-09-29T10:14:46.439Z,28.28
2018-09-29T10:17:16.003Z,27.82
2018-09-29T10:19:44.491Z,28.48
2018-09-29T10:22:12.785Z,27.89
2018-09-29T10:24:41.228Z,28.21
2018-09-29T10:27:09.464Z,28.85
2018-09-29T10:29:37.696Z,28.15
2018-09-29T10:32:06.579Z,27.43
2018-09-29T10:34:34.859Z,27.77
2018-09-29T10:37:03.213Z,27.48
2018-09-29T10:39:31.926Z,27.90
2018-09-29T10:42:00.317Z,26.61
2018-09-29T10:44:28.921Z,26.19
2018-09-29T10:46:57.317Z,25.54
2018-09-29T10:49:25.877Z,26.72
2018-09-29T10:51:54.276Z,25.31
2018-09-29T10:54:22.997Z,25.99
2018-09-29T10:56:51.465Z,25.34
2018-09-29T10:59:20.204Z,24.61
2018-09-29T11:01:48.512Z,24.62
2018-09-29T11:04:16.741Z,24.19
2018-09-29T11:06:44.987Z,24.84
2018-09-29T11:09:13.097Z,23.48
2018-09-29T11:11:41.364Z,23.43
2018-09-29T11:14:09.832Z,24.27
2018-09-29T11:16:38.220Z,23.89
2018-09-29T11:19:06.835Z,22.90
2018-09-29T11:21:35.272Z,23.96
2018-09-29T11:24:04.320Z,25.25
2018-09-29T11:26:33.801Z,23.43
2018-09-29T11:29:02.902Z,24.69
2018-09-29T11:31:33.594Z,24.41
2018-09-29T11:34:03.472Z,22.67
2018-09-29T11:36:32.080Z,23.74
2018-09-29T11:39:00.275Z,22.36
2018-09-29T11:41:29.054Z,23.24
2018-09-29T11:43:58.071Z,22.50
2018-09-29T11:46:27.784Z,22.30
2018-09-29T11:48:59.391Z,23.01
2018-09-29T11:51:28.537Z,22.09
2018-09-29T11:53:56.874Z,23.62
2018-09-29T11:56:25.488Z,23.48
2018-09-29T11:58:53.669Z,24.00
2018-09-29T12:01:24.364Z,23.65
2018-09-29T12:03:55.011Z,23.54
2018-09-29T12:06:26.136Z,24.03
2018-09-29T12:08:57.261Z,23.99
2018-09-29T12:11:26.839Z,24.13
2018-09-29T12:13:55.438Z,24.38
2018-09-29T12:16:24.633Z,24.29
2018-09-29T12:18:53.289Z,23.97
2018-09-29T12:21:23.301Z,24.65
2018-09-29T12:23:53.495Z,23.64
2018-09-29T12:26:23.363Z,22.57
2018-09-29T12:28:53.833Z,22.28
2018-09-29T12:31:23.823Z,21.92
2018-09-29T12:33:52.664Z,21.99
2018-09-29T12:36:20.973Z,22.41
2018-09-29T12:38:51.139Z,21.32
2018-09-29T12:41:19.743Z,22.17
2018-09-29T12:43:48.147Z,23.19
2018-09-29T12:46:16.530Z,22.69
2018-09-29T12:48:46.896Z,22.21
2018-09-29T12:51:16.870Z,21.96
2018-09-29T12:53:46.296Z,22.15
2018-09-29T12:56:14.944Z,21.94
2018-09-29T12:58:43.388Z,20.93
2018-09-29T13:01:12.019Z,20.96
2018-09-29T13:03:40.972Z,21.54
2018-09-29T13:06:10.226Z,22.39
2018-09-29T13:08:39.048Z,22.79
2018-09-29T13:11:07.789Z,23.36
2018-09-29T13:13:36.941Z,24.12
2018-09-29T13:16:05.593Z,23.90
2018-09-29T13:18:34.437Z,24.68
2018-09-29T13:21:02.756Z,24.10
2018-09-29T13:23:31.343Z,24.85
2018-09-29T13:26:00.991Z,22.50
2018-09-29T13:28:29.351Z,24.04
2018-09-29T13:30:57.625Z,25.51
2018-09-29T13:33:27.846Z,24.95
2018-09-29T13:35:59.028Z,25.30
2018-09-29T13:38:27.342Z,25.41
2018-09-29T13:40:57.201Z,25.75
2018-09-29T13:43:26.848Z,26.51
2018-09-29T13:46:00.250Z,26.11
2018-09-29T13:48:32.542Z,26.67
2018-09-29T13:51:03.625Z,26.54
2018-09-29T13:53:32.249Z,26.24
2018-09-29T13:56:01.022Z,26.55
2018-09-29T13:58:29.618Z,26.24
2018-09-29T14:01:00.974Z,26.06
2018-09-29T14:03:29.835Z,26.16
2018-09-29T14:05:59.792Z,26.21
2018-09-29T14:08:28.876Z,25.92
2018-09-29T14:10:58.008Z,25.97
2018-09-29T14:13:26.467Z,26.39
2018-09-29T14:15:56.745Z,26.44
2018-09-29T14:18:26.900Z,26.04
2018-09-29T14:20:56.118Z,26.11
2018-09-29T14:23:24.675Z,26.02
2018-09-29T14:25:53.761Z,25.97
2018-09-29T14:28:24.101Z,26.52
2018-09-29T14:30:54.472Z,26.51
2018-09-29T14:33:24.876Z,26.94
2018-09-29T14:35:56.219Z,26.68
2018-09-29T14:38:29.125Z,26.86
2018-09-29T14:41:09.267Z,27.08
2018-09-29T14:43:42.023Z,27.11
2018-09-29T14:46:14.336Z,27.16
2018-09-29T14:48:47.857Z,27.79
2018-09-29T14:51:18.038Z,27.29
2018-09-29T14:53:47.010Z,26.83
2018-09-29T14:56:16.876Z,26.58
2018-09-29T14:58:47.210Z,26.38
2018-09-29T15:01:16.975Z,25.98
2018-09-29T15:03:47.425Z,25.41
2018-09-29T15:06:16.262Z,25.47
2018-09-29T15:08:47.386Z,24.99
2018-09-29T15:11:17.888Z,25.02
2018-09-29T15:13:47.043Z,29.76
2018-09-29T15:16:16.403Z,33.82
2018-09-29T15:18:45.752Z,35.37
2018-09-29T15:21:22.047Z,36.03
2018-09-29T15:23:57.399Z,36.48
2018-09-29T15:26:26.560Z,37.48
2018-09-29T15:28:55.388Z,37.59
2018-09-29T15:31:24.463Z,37.66
2018-09-29T15:33:57.429Z,38.45
2018-09-29T15:36:27.886Z,38.50
2018-09-29T15:39:07.798Z,38.70
2018-09-29T15:41:36.509Z,38.41
2018-09-29T15:44:06.806Z,39.09
2018-09-29T15:46:37.027Z,39.66
2018-09-29T15:49:06.048Z,40.56
2018-09-29T15:51:35.370Z,40.67
2018-09-29T15:54:05.382Z,42.04
2018-09-29T15:56:36.681Z,42.34
2018-09-29T15:59:05.844Z,42.84
2018-09-29T16:01:36.762Z,43.12
2018-09-29T16:04:05.413Z,43.25
2018-09-29T16:06:34.677Z,44.23
2018-09-29T16:09:07.716Z,44.67
2018-09-29T16:11:37.714Z,44.57
2018-09-29T16:14:06.940Z,44.82
2018-09-29T16:16:36.506Z,44.64
2018-09-29T16:19:06.028Z,45.05
2018-09-29T16:21:38.923Z,45.58
2018-09-29T16:24:37.794Z,45.19
2018-09-29T16:27:10.530Z,45.79
2018-09-29T16:29:39.978Z,46.57
2018-09-29T16:32:17.934Z,46.97
2018-09-29T16:34:48.325Z,46.96
2018-09-29T16:37:17.139Z,46.99
2018-09-29T16:39:46.234Z,47.66
2018-09-29T16:42:17.337Z,47.37
2018-09-29T16:44:46.790Z,47.90
2018-09-29T16:47:15.538Z,48.21
2018-09-29T16:50:14.279Z,47.60
2018-09-29T16:53:26.698Z,48.64
2018-09-29T16:56:03.024Z,48.86
2018-09-29T16:58:43.276Z,48.97
2018-09-29T17:01:12.510Z,49.86
2018-09-29T17:03:41.216Z,50.28
2018-09-29T17:06:10.353Z,49.89
2018-09-29T17:08:39.847Z,50.37
2018-09-29T17:11:09.040Z,50.79
2018-09-29T17:13:37.577Z,50.33
2018-09-29T17:16:06.855Z,50.70
2018-09-29T17:18:36.992Z,50.70
2018-09-29T17:21:06.017Z,51.16
2018-09-29T17:23:34.762Z,51.27
2018-09-29T17:26:03.229Z,52.41
2018-09-29T17:28:31.810Z,52.11
2018-09-29T17:31:02.261Z,53.51
2018-09-29T17:33:32.752Z,53.87
2018-09-29T17:36:01.912Z,54.60
2018-09-29T17:38:31.743Z,54.09
2018-09-29T17:41:02.115Z,53.65
2018-09-29T17:43:31.431Z,54.12
2018-09-29T17:46:02.087Z,54.68
2018-09-29T17:48:31.659Z,55.12
2018-09-29T17:51:02.753Z,55.22
2018-09-29T17:53:32.737Z,54.78
2018-09-29T17:56:04.166Z,55.29
2018-09-29T17:58:34.186Z,54.92
2018-09-29T18:01:10.899Z,55.27
2018-09-29T18:03:47.039Z,55.43
2018-09-29T18:06:23.129Z,56.01
2018-09-29T18:08:54.482Z,56.19
2018-09-29T18:11:26.486Z,56.36
2018-09-29T18:13:59.054Z,56.13
2018-09-29T18:16:28.967Z,57.01
2018-09-29T18:18:57.956Z,57.13
2018-09-29T18:21:27.924Z,57.32
2018-09-29T18:23:58.126Z,57.27
2018-09-29T18:26:27.393Z,57.53
2018-09-29T18:28:57.253Z,57.70
2018-09-29T18:31:33.252Z,59.13
2018-09-29T18:34:04.734Z,59.01
2018-09-29T18:36:36.446Z,57.91
2018-09-29T18:39:07.995Z,57.99
2018-09-29T18:41:37.591Z,57.46
2018-09-29T18:44:09.542Z,57.26
2018-09-29T18:46:38.802Z,58.30
2018-09-29T18:49:07.487Z,58.33
2018-09-29T18:51:36.877Z,58.00
2018-09-29T18:54:05.925Z,58.88
2018-09-29T18:56:35.447Z,58.87
2018-09-29T18:59:04.779Z,59.95
2018-09-29T19:01:35.262Z,59.50
2018-09-29T19:04:05.730Z,60.09
2018-09-29T19:06:36.012Z,60.76
2018-09-29T19:09:09.346Z,60.44
2018-09-29T19:11:39.265Z,60.46
2018-09-29T19:14:09.408Z,62.19
2018-09-29T19:16:38.917Z,60.49
2018-09-29T19:19:08.689Z,61.78
2018-09-29T19:21:37.384Z,61.42
2018-09-29T19:24:08.615Z,60.90
2018-09-29T19:26:38.406Z,60.66
2018-09-29T19:29:08.041Z,60.96
2018-09-29T19:31:36.859Z,60.73
2018-09-29T19:34:05.984Z,60.72
2018-09-29T19:36:34.830Z,62.26
2018-09-29T19:39:05.025Z,61.84
2018-09-29T19:41:34.824Z,62.34
2018-09-29T19:44:05.695Z,62.90
2018-09-29T19:46:35.956Z,62.83
2018-09-29T19:49:05.926Z,62.70
2018-09-29T19:51:34.447Z,63.89
2018-09-29T19:54:03.232Z,63.55
2018-09-29T19:56:32.834Z,63.28
2018-09-29T19:59:05.266Z,63.52
2018-09-29T20:01:35.626Z,64.12
2018-09-29T20:04:04.587Z,64.66
2018-09-29T20:06:33.957Z,63.97
2018-09-29T20:09:06.102Z,64.15
2018-09-29T20:11:37.342Z,64.79
2018-09-29T20:14:07.497Z,66.13
2018-09-29T20:16:36.173Z,65.64
2018-09-29T20:19:04.765Z,64.97
2018-09-29T20:21:33.358Z,64.84
2018-09-29T20:24:03.792Z,67.49
2018-09-29T20:26:34.001Z,66.53
2018-09-29T20:29:06.546Z,67.18
2018-09-29T20:31:41.150Z,66.35
2018-09-29T20:34:11.646Z,67.59
2018-09-29T20:36:42.272Z,66.54
2018-09-29T20:39:13.507Z,66.63
2018-09-29T20:41:43.895Z,67.26
2018-09-29T20:44:13.661Z,67.48
2018-09-29T20:46:45.395Z,67.35
2018-09-29T20:49:13.989Z,66.83
2018-09-29T20:51:42.577Z,67.89
2018-09-29T20:54:11.317Z,69.24
2018-09-29T20:56:40.806Z,68.62
2018-09-29T20:59:10.334Z,68.22
2018-09-29T21:01:38.807Z,68.96
2018-09-29T21:04:07.605Z,70.19
2018-09-29T21:06:36.818Z,68.65
2018-09-29T21:09:07.418Z,69.28
2018-09-29T21:11:36.164Z,69.68
2018-09-29T21:14:06.186Z,70.67
2018-09-29T21:16:34.943Z,69.63
2018-09-29T21:19:03.491Z,70.41
2018-09-29T21:21:31.824Z,71.00
2018-09-29T21:24:00.199Z,69.95
2018-09-29T21:26:29.756Z,70.48
2018-09-29T21:28:58.143Z,68.52
2018-09-29T21:31:26.573Z,70.36
2018-09-29T21:33:55.014Z,69.76
2018-09-29T21:36:23.660Z,69.37
2018-09-29T21:38:52.252Z,69.08
2018-09-29T21:41:20.810Z,69.02
2018-09-29T21:43:49.252Z,69.32
2018-09-29T21:46:17.685Z,69.29
2018-09-29T21:48:46.272Z,68.43
2018-09-29T21:51:14.850Z,69.35
2018-09-29T21:53:43.533Z,68.58
2018-09-29T21:56:14.228Z,68.84
2018-09-29T21:58:42.779Z,68.78
2018-09-29T22:01:16.626Z,69.09
2018-09-29T22:03:44.998Z,69.28
2018-09-29T22:06:13.457Z,69.35
2018-09-29T22:08:42.137Z,68.38
2018-09-29T22:11:10.611Z,68.97
2018-09-29T22:13:38.933Z,68.83
2018-09-29T22:16:07.604Z,69.80
2018-09-29T22:18:36.036Z,69.02
2018-09-29T22:21:04.564Z,69.82
2018-09-29T22:23:32.941Z,69.24
2018-09-29T22:26:01.534Z,68.40
2018-09-29T22:28:29.991Z,70.00
2018-09-29T22:30:58.506Z,69.60
2018-09-29T22:33:26.880Z,70.10
2018-09-29T22:35:55.408Z,69.09
2018-09-29T22:38:23.857Z,69.80
2018-09-29T22:40:52.315Z,70.60
2018-09-29T22:43:20.782Z,71.08
2018-09-29T22:45:49.140Z,70.74
2018-09-29T22:48:17.528Z,71.83
2018-09-29T22:50:46.102Z,72.28
2018-09-29T22:53:14.560Z,72.49
2018-09-29T22:55:42.939Z,72.09
2018-09-29T22:58:11.408Z,72.09
2018-09-29T23:00:39.794Z,72.12
2018-09-29T23:03:09.101Z,72.17
2018-09-29T23:05:37.723Z,72.08
2018-09-29T23:08:06.468Z,72.04
2018-09-29T23:10:34.866Z,73.26
2018-09-29T23:13:03.182Z,73.85
2018-09-29T23:15:31.734Z,75.14
2018-09-29T23:18:00.455Z,74.32
2018-09-29T23:20:28.849Z,75.20
2018-09-29T23:22:57.229Z,74.82
2018-09-29T23:25:25.691Z,74.43
2018-09-29T23:27:54.091Z,75.60
2018-09-29T23:30:22.515Z,75.66
2018-09-29T23:32:51.105Z,75.17
2018-09-29T23:35:19.660Z,75.45
2018-09-29T23:37:48.009Z,75.21
2018-09-29T23:40:16.315Z,75.60
2018-09-29T23:42:44.831Z,76.62
2018-09-29T23:45:13.145Z,75.47
2018-09-29T23:47:41.642Z,75.69
2018-09-29T23:50:10.665Z,76.69
2018-09-29T23:52:39.016Z,76.55
2018-09-29T23:55:07.497Z,76.24
2018-09-29T23:57:36.301Z,76.29
